sensor_id;sensor_type;location;lat;lon;timestamp;temperature;humidity
67974;DHT22;54756;51.140;6.952;2023-03-14T00:00:56;10.70;99.90
67974;DHT22;54756;51.140;6.952;2023-03-14T00:02:57;10.70;99.90
67974;DHT22;54756;51.140;6.952;2023-03-14T00:04:57;10.70;99.90
67974;DHT22;54756;51.140;6.952;2023-03-14T00:06:58;10.70;99.90
67974;DHT22;54756;51.140;6.952;2023-03-14T00:08:58;10.80;99.90
67974;DHT22;54756;51.140;6.952;2023-03-14T00:11:07;10.80;99.90
67974;DHT22;54756;51.140;6.952;2023-03-14T00:13:08;10.70;99.90
67974;DHT22;54756;51.140;6.952;2023-03-14T00:15:09;10.70;99.90
67974;DHT22;54756;51.140;6.952;2023-03-14T00:17:10;10.70;99.90
67974;DHT22;54756;51.140;6.952;2023-03-14T00:19:11;10.70;99.90
67974;DHT22;54756;51.140;6.952;2023-03-14T00:21:12;10.60;99.90
67974;DHT22;54756;51.140;6.952;2023-03-14T00:23:13;10.60;99.90
67974;DHT22;54756;51.140;6.952;2023-03-14T00:25:13;10.60;99.90
67974;DHT22;54756;51.140;6.952;2023-03-14T00:27:14;10.70;99.90
67974;DHT22;54756;51.140;6.952;2023-03-14T00:29:14;10.70;99.90
67974;DHT22;54756;51.140;6.952;2023-03-14T00:31:15;10.70;99.90
67974;DHT22;54756;51.140;6.952;2023-03-14T00:33:16;10.70;99.90
67974;DHT22;54756;51.140;6.952;2023-03-14T00:35:17;10.70;99.90
67974;DHT22;54756;51.140;6.952;2023-03-14T00:37:17;10.80;99.90
67974;DHT22;54756;51.140;6.952;2023-03-14T00:39:18;10.80;99.90
67974;DHT22;54756;51.140;6.952;2023-03-14T00:41:21;10.90;99.90
67974;DHT22;54756;51.140;6.952;2023-03-14T00:43:25;11.00;99.90
67974;DHT22;54756;51.140;6.952;2023-03-14T00:45:25;11.00;99.90
67974;DHT22;54756;51.140;6.952;2023-03-14T00:47:26;11.10;99.90
67974;DHT22;54756;51.140;6.952;2023-03-14T00:49:26;11.10;99.90
67974;DHT22;54756;51.140;6.952;2023-03-14T00:51:27;11.10;99.90
67974;DHT22;54756;51.140;6.952;2023-03-14T00:53:28;11.20;99.90
67974;DHT22;54756;51.140;6.952;2023-03-14T00:55:28;11.20;99.90
67974;DHT22;54756;51.140;6.952;2023-03-14T00:57:29;11.20;99.90
67974;DHT22;54756;51.140;6.952;2023-03-14T00:59:29;11.00;99.90
67974;DHT22;54756;51.140;6.952;2023-03-14T01:01:30;10.70;99.90
67974;DHT22;54756;51.140;6.952;2023-03-14T01:03:31;10.30;99.90
67974;DHT22;54756;51.140;6.952;2023-03-14T01:05:31;9.90;99.90
67974;DHT22;54756;51.140;6.952;2023-03-14T01:07:32;9.60;99.90
67974;DHT22;54756;51.140;6.952;2023-03-14T01:09:33;9.30;99.90
67974;DHT22;54756;51.140;6.952;2023-03-14T01:11:35;9.10;99.90
67974;DHT22;54756;51.140;6.952;2023-03-14T01:13:36;8.90;99.90
67974;DHT22;54756;51.140;6.952;2023-03-14T01:15:37;8.80;99.90
67974;DHT22;54756;51.140;6.952;2023-03-14T01:17:38;8.70;99.90
67974;DHT22;54756;51.140;6.952;2023-03-14T01:19:39;8.70;99.90
67974;DHT22;54756;51.140;6.952;2023-03-14T01:21:40;8.70;99.90
67974;DHT22;54756;51.140;6.952;2023-03-14T01:23:41;8.70;99.90
67974;DHT22;54756;51.140;6.952;2023-03-14T01:25:42;8.70;99.90
67974;DHT22;54756;51.140;6.952;2023-03-14T01:27:43;8.70;99.90
67974;DHT22;54756;51.140;6.952;2023-03-14T01:29:44;8.70;99.90
67974;DHT22;54756;51.140;6.952;2023-03-14T01:31:44;8.70;99.90
67974;DHT22;54756;51.140;6.952;2023-03-14T01:33:46;8.70;99.90
67974;DHT22;54756;51.140;6.952;2023-03-14T01:35:49;8.60;99.90
67974;DHT22;54756;51.140;6.952;2023-03-14T01:37:50;8.60;99.90
67974;DHT22;54756;51.140;6.952;2023-03-14T01:39:50;8.60;99.90
67974;DHT22;54756;51.140;6.952;2023-03-14T01:41:51;8.60;99.90
67974;DHT22;54756;51.140;6.952;2023-03-14T01:43:52;8.60;99.90
67974;DHT22;54756;51.140;6.952;2023-03-14T01:48:05;8.50;99.90
67974;DHT22;54756;51.140;6.952;2023-03-14T01:50:11;8.50;99.90
67974;DHT22;54756;51.140;6.952;2023-03-14T01:52:14;8.50;99.90
67974;DHT22;54756;51.140;6.952;2023-03-14T01:54:32;8.50;99.90
67974;DHT22;54756;51.140;6.952;2023-03-14T01:56:35;8.60;99.90
67974;DHT22;54756;51.140;6.952;2023-03-14T01:58:35;8.60;99.90
67974;DHT22;54756;51.140;6.952;2023-03-14T02:00:37;8.60;99.90
67974;DHT22;54756;51.140;6.952;2023-03-14T02:02:38;8.60;99.90
67974;DHT22;54756;51.140;6.952;2023-03-14T02:04:40;8.60;99.90
67974;DHT22;54756;51.140;6.952;2023-03-14T02:06:49;8.60;99.90
67974;DHT22;54756;51.140;6.952;2023-03-14T02:08:51;8.50;99.90
67974;DHT22;54756;51.140;6.952;2023-03-14T02:10:52;8.50;99.90
67974;DHT22;54756;51.140;6.952;2023-03-14T02:12:55;8.50;99.90
67974;DHT22;54756;51.140;6.952;2023-03-14T02:14:56;8.50;99.90
67974;DHT22;54756;51.140;6.952;2023-03-14T02:16:57;8.50;99.90
67974;DHT22;54756;51.140;6.952;2023-03-14T02:18:58;8.50;99.90
67974;DHT22;54756;51.140;6.952;2023-03-14T02:23:09;8.60;99.90
67974;DHT22;54756;51.140;6.952;2023-03-14T02:27:22;8.60;99.90
67974;DHT22;54756;51.140;6.952;2023-03-14T02:29:23;8.70;99.90
67974;DHT22;54756;51.140;6.952;2023-03-14T02:31:23;8.60;99.90
67974;DHT22;54756;51.140;6.952;2023-03-14T02:33:24;8.70;99.90
67974;DHT22;54756;51.140;6.952;2023-03-14T02:35:28;8.70;99.90
67974;DHT22;54756;51.140;6.952;2023-03-14T02:37:44;8.70;99.90
67974;DHT22;54756;51.140;6.952;2023-03-14T02:39:46;8.80;99.90
67974;DHT22;54756;51.140;6.952;2023-03-14T02:41:49;8.80;99.90
67974;DHT22;54756;51.140;6.952;2023-03-14T02:43:49;8.90;99.90
67974;DHT22;54756;51.140;6.952;2023-03-14T02:45:51;8.90;99.90
67974;DHT22;54756;51.140;6.952;2023-03-14T02:47:56;9.00;99.90
67974;DHT22;54756;51.140;6.952;2023-03-14T02:50:06;9.00;99.90
67974;DHT22;54756;51.140;6.952;2023-03-14T02:52:08;9.00;99.90
67974;DHT22;54756;51.140;6.952;2023-03-14T02:54:09;9.00;99.90
67974;DHT22;54756;51.140;6.952;2023-03-14T02:56:10;9.00;99.90
67974;DHT22;54756;51.140;6.952;2023-03-14T02:58:10;9.10;99.90
67974;DHT22;54756;51.140;6.952;2023-03-14T03:00:11;9.00;99.90
67974;DHT22;54756;51.140;6.952;2023-03-14T03:02:12;9.00;99.90
67974;DHT22;54756;51.140;6.952;2023-03-14T03:04:12;9.00;99.90
67974;DHT22;54756;51.140;6.952;2023-03-14T03:06:13;9.00;99.90
67974;DHT22;54756;51.140;6.952;2023-03-14T03:08:13;9.00;99.90
67974;DHT22;54756;51.140;6.952;2023-03-14T03:10:14;9.00;99.90
67974;DHT22;54756;51.140;6.952;2023-03-14T03:12:14;9.00;99.90
67974;DHT22;54756;51.140;6.952;2023-03-14T03:14:15;9.00;99.90
67974;DHT22;54756;51.140;6.952;2023-03-14T03:16:15;9.00;99.90
67974;DHT22;54756;51.140;6.952;2023-03-14T03:18:16;9.00;99.90
67974;DHT22;54756;51.140;6.952;2023-03-14T03:20:16;9.00;99.90
67974;DHT22;54756;51.140;6.952;2023-03-14T03:22:17;9.00;99.90
67974;DHT22;54756;51.140;6.952;2023-03-14T03:24:18;9.10;99.90
67974;DHT22;54756;51.140;6.952;2023-03-14T03:26:18;9.10;99.90
67974;DHT22;54756;51.140;6.952;2023-03-14T03:28:19;9.10;99.90
67974;DHT22;54756;51.140;6.952;2023-03-14T03:30:20;9.10;99.90
67974;DHT22;54756;51.140;6.952;2023-03-14T03:32:21;9.10;99.90
67974;DHT22;54756;51.140;6.952;2023-03-14T03:34:21;9.10;99.90
67974;DHT22;54756;51.140;6.952;2023-03-14T03:36:24;9.10;99.90
67974;DHT22;54756;51.140;6.952;2023-03-14T03:38:24;9.20;99.90
67974;DHT22;54756;51.140;6.952;2023-03-14T03:40:25;9.10;99.90
67974;DHT22;54756;51.140;6.952;2023-03-14T03:42:26;9.10;99.90
67974;DHT22;54756;51.140;6.952;2023-03-14T03:44:27;9.10;99.90
67974;DHT22;54756;51.140;6.952;2023-03-14T03:46:27;9.10;99.90
67974;DHT22;54756;51.140;6.952;2023-03-14T03:48:28;9.00;99.90
67974;DHT22;54756;51.140;6.952;2023-03-14T03:50:29;9.00;99.90
67974;DHT22;54756;51.140;6.952;2023-03-14T03:52:29;8.90;99.90
67974;DHT22;54756;51.140;6.952;2023-03-14T03:54:30;8.90;99.90
67974;DHT22;54756;51.140;6.952;2023-03-14T03:56:30;8.90;99.90
67974;DHT22;54756;51.140;6.952;2023-03-14T03:58:31;8.90;99.90
67974;DHT22;54756;51.140;6.952;2023-03-14T04:00:32;8.80;99.90
67974;DHT22;54756;51.140;6.952;2023-03-14T04:02:33;8.80;99.90
67974;DHT22;54756;51.140;6.952;2023-03-14T04:04:34;8.80;99.90
67974;DHT22;54756;51.140;6.952;2023-03-14T04:06:34;8.80;99.90
67974;DHT22;54756;51.140;6.952;2023-03-14T04:08:35;8.80;99.90
67974;DHT22;54756;51.140;6.952;2023-03-14T04:10:36;8.80;99.90
67974;DHT22;54756;51.140;6.952;2023-03-14T04:12:37;8.80;99.90
67974;DHT22;54756;51.140;6.952;2023-03-14T04:14:37;8.80;99.90
67974;DHT22;54756;51.140;6.952;2023-03-14T04:16:38;8.80;99.90
67974;DHT22;54756;51.140;6.952;2023-03-14T04:18:38;8.80;99.90
67974;DHT22;54756;51.140;6.952;2023-03-14T04:20:39;8.80;99.90
67974;DHT22;54756;51.140;6.952;2023-03-14T04:22:40;8.80;99.90
67974;DHT22;54756;51.140;6.952;2023-03-14T04:24:41;8.80;99.90
67974;DHT22;54756;51.140;6.952;2023-03-14T04:26:41;8.80;99.90
67974;DHT22;54756;51.140;6.952;2023-03-14T04:28:42;8.80;99.90
67974;DHT22;54756;51.140;6.952;2023-03-14T04:30:43;8.70;99.90
67974;DHT22;54756;51.140;6.952;2023-03-14T04:32:43;8.70;99.90
67974;DHT22;54756;51.140;6.952;2023-03-14T04:34:44;8.70;99.90
67974;DHT22;54756;51.140;6.952;2023-03-14T04:36:44;8.70;99.90
67974;DHT22;54756;51.140;6.952;2023-03-14T04:38:45;8.70;99.90
67974;DHT22;54756;51.140;6.952;2023-03-14T04:40:45;8.70;99.90
67974;DHT22;54756;51.140;6.952;2023-03-14T04:42:46;8.70;99.90
67974;DHT22;54756;51.140;6.952;2023-03-14T04:44:46;8.70;99.90
67974;DHT22;54756;51.140;6.952;2023-03-14T04:46:49;8.70;99.90
67974;DHT22;54756;51.140;6.952;2023-03-14T04:48:50;8.80;99.90
67974;DHT22;54756;51.140;6.952;2023-03-14T04:50:50;8.80;99.90
67974;DHT22;54756;51.140;6.952;2023-03-14T04:52:51;8.80;99.90
67974;DHT22;54756;51.140;6.952;2023-03-14T04:54:52;8.80;99.90
67974;DHT22;54756;51.140;6.952;2023-03-14T04:56:52;8.80;99.90
67974;DHT22;54756;51.140;6.952;2023-03-14T04:58:53;8.80;99.90
67974;DHT22;54756;51.140;6.952;2023-03-14T05:00:54;8.80;99.90
67974;DHT22;54756;51.140;6.952;2023-03-14T05:02:54;8.80;99.90
67974;DHT22;54756;51.140;6.952;2023-03-14T05:04:55;8.80;99.90
67974;DHT22;54756;51.140;6.952;2023-03-14T05:06:55;8.80;99.90
67974;DHT22;54756;51.140;6.952;2023-03-14T05:08:56;8.80;99.90
67974;DHT22;54756;51.140;6.952;2023-03-14T05:10:57;8.90;99.90
67974;DHT22;54756;51.140;6.952;2023-03-14T05:12:58;8.80;99.90
67974;DHT22;54756;51.140;6.952;2023-03-14T05:14:58;8.90;99.90
67974;DHT22;54756;51.140;6.952;2023-03-14T05:16:59;8.90;99.90
67974;DHT22;54756;51.140;6.952;2023-03-14T05:18:59;8.90;99.90
67974;DHT22;54756;51.140;6.952;2023-03-14T05:21:02;8.90;99.90
67974;DHT22;54756;51.140;6.952;2023-03-14T05:23:02;8.90;99.90
67974;DHT22;54756;51.140;6.952;2023-03-14T05:25:03;8.90;99.90
67974;DHT22;54756;51.140;6.952;2023-03-14T05:27:04;8.90;99.90
67974;DHT22;54756;51.140;6.952;2023-03-14T05:29:05;8.90;99.90
67974;DHT22;54756;51.140;6.952;2023-03-14T05:31:08;8.90;99.90
67974;DHT22;54756;51.140;6.952;2023-03-14T05:33:09;8.90;99.90
67974;DHT22;54756;51.140;6.952;2023-03-14T05:35:10;8.90;99.90
67974;DHT22;54756;51.140;6.952;2023-03-14T05:37:10;8.90;99.90
67974;DHT22;54756;51.140;6.952;2023-03-14T05:39:11;8.90;99.90
67974;DHT22;54756;51.140;6.952;2023-03-14T05:41:11;8.90;99.90
67974;DHT22;54756;51.140;6.952;2023-03-14T05:43:12;9.00;99.90
67974;DHT22;54756;51.140;6.952;2023-03-14T05:45:13;8.90;99.90
67974;DHT22;54756;51.140;6.952;2023-03-14T05:47:14;9.00;99.90
67974;DHT22;54756;51.140;6.952;2023-03-14T05:49:14;9.00;99.90
67974;DHT22;54756;51.140;6.952;2023-03-14T05:51:15;9.00;99.90
67974;DHT22;54756;51.140;6.952;2023-03-14T05:53:16;9.00;99.90
67974;DHT22;54756;51.140;6.952;2023-03-14T05:55:16;9.10;99.90
67974;DHT22;54756;51.140;6.952;2023-03-14T05:57:17;9.20;99.90
67974;DHT22;54756;51.140;6.952;2023-03-14T05:59:17;9.20;99.90
67974;DHT22;54756;51.140;6.952;2023-03-14T06:01:18;9.20;99.90
67974;DHT22;54756;51.140;6.952;2023-03-14T06:03:18;9.20;99.90
67974;DHT22;54756;51.140;6.952;2023-03-14T06:05:19;9.10;99.90
67974;DHT22;54756;51.140;6.952;2023-03-14T06:07:19;9.10;99.90
67974;DHT22;54756;51.140;6.952;2023-03-14T06:09:20;9.10;99.90
67974;DHT22;54756;51.140;6.952;2023-03-14T06:11:23;9.00;99.90
67974;DHT22;54756;51.140;6.952;2023-03-14T06:13:23;9.00;99.90
67974;DHT22;54756;51.140;6.952;2023-03-14T06:15:24;9.00;99.90
67974;DHT22;54756;51.140;6.952;2023-03-14T06:17:24;9.00;99.90
67974;DHT22;54756;51.140;6.952;2023-03-14T06:19:25;9.00;99.90
67974;DHT22;54756;51.140;6.952;2023-03-14T06:21:26;9.00;99.90
67974;DHT22;54756;51.140;6.952;2023-03-14T06:23:26;9.00;99.90
67974;DHT22;54756;51.140;6.952;2023-03-14T06:25:27;9.00;99.90
67974;DHT22;54756;51.140;6.952;2023-03-14T06:27:28;9.00;99.90
67974;DHT22;54756;51.140;6.952;2023-03-14T06:29:29;9.00;99.90
67974;DHT22;54756;51.140;6.952;2023-03-14T06:31:31;9.00;99.90
67974;DHT22;54756;51.140;6.952;2023-03-14T06:33:31;9.10;99.90
67974;DHT22;54756;51.140;6.952;2023-03-14T06:35:32;9.10;99.90
67974;DHT22;54756;51.140;6.952;2023-03-14T06:37:32;9.20;99.90
67974;DHT22;54756;51.140;6.952;2023-03-14T06:39:33;9.20;99.90
67974;DHT22;54756;51.140;6.952;2023-03-14T06:41:33;9.20;99.90
67974;DHT22;54756;51.140;6.952;2023-03-14T06:43:34;9.30;99.90
67974;DHT22;54756;51.140;6.952;2023-03-14T06:45:35;9.30;99.90
67974;DHT22;54756;51.140;6.952;2023-03-14T06:47:35;9.30;99.90
67974;DHT22;54756;51.140;6.952;2023-03-14T06:49:36;9.40;99.90
67974;DHT22;54756;51.140;6.952;2023-03-14T06:51:36;9.40;99.90
67974;DHT22;54756;51.140;6.952;2023-03-14T06:53:37;9.50;99.90
67974;DHT22;54756;51.140;6.952;2023-03-14T06:55:37;9.50;99.90
67974;DHT22;54756;51.140;6.952;2023-03-14T06:57:38;9.60;99.90
67974;DHT22;54756;51.140;6.952;2023-03-14T06:59:38;9.70;99.90
67974;DHT22;54756;51.140;6.952;2023-03-14T07:01:40;9.70;99.90
67974;DHT22;54756;51.140;6.952;2023-03-14T07:03:41;9.80;99.90
67974;DHT22;54756;51.140;6.952;2023-03-14T07:05:41;9.80;99.90
67974;DHT22;54756;51.140;6.952;2023-03-14T07:07:42;9.90;99.90
67974;DHT22;54756;51.140;6.952;2023-03-14T07:09:42;9.90;99.90
67974;DHT22;54756;51.140;6.952;2023-03-14T07:11:43;9.90;99.90
67974;DHT22;54756;51.140;6.952;2023-03-14T07:13:44;10.00;99.90
67974;DHT22;54756;51.140;6.952;2023-03-14T07:15:45;10.00;99.90
67974;DHT22;54756;51.140;6.952;2023-03-14T07:17:46;10.10;99.90
67974;DHT22;54756;51.140;6.952;2023-03-14T07:19:48;10.20;99.90
67974;DHT22;54756;51.140;6.952;2023-03-14T07:21:48;10.20;99.90
67974;DHT22;54756;51.140;6.952;2023-03-14T07:23:49;10.20;99.90
67974;DHT22;54756;51.140;6.952;2023-03-14T07:25:49;10.30;99.90
67974;DHT22;54756;51.140;6.952;2023-03-14T07:27:51;10.30;99.90
67974;DHT22;54756;51.140;6.952;2023-03-14T07:29:51;10.30;99.90
67974;DHT22;54756;51.140;6.952;2023-03-14T07:31:52;10.40;99.90
67974;DHT22;54756;51.140;6.952;2023-03-14T07:33:52;10.40;99.90
67974;DHT22;54756;51.140;6.952;2023-03-14T07:35:53;10.40;99.90
67974;DHT22;54756;51.140;6.952;2023-03-14T07:37:54;10.50;99.90
67974;DHT22;54756;51.140;6.952;2023-03-14T07:39:54;10.50;99.90
67974;DHT22;54756;51.140;6.952;2023-03-14T07:41:55;10.60;99.90
67974;DHT22;54756;51.140;6.952;2023-03-14T07:43:55;10.60;99.90
67974;DHT22;54756;51.140;6.952;2023-03-14T07:45:56;10.70;99.90
67974;DHT22;54756;51.140;6.952;2023-03-14T07:47:57;10.70;99.90
67974;DHT22;54756;51.140;6.952;2023-03-14T07:49:57;10.70;99.90
67974;DHT22;54756;51.140;6.952;2023-03-14T07:51:58;10.70;99.90
67974;DHT22;54756;51.140;6.952;2023-03-14T07:53:59;10.70;99.90
67974;DHT22;54756;51.140;6.952;2023-03-14T07:55:59;10.80;99.90
67974;DHT22;54756;51.140;6.952;2023-03-14T07:58:00;10.70;99.90
67974;DHT22;54756;51.140;6.952;2023-03-14T08:00:00;10.80;99.90
67974;DHT22;54756;51.140;6.952;2023-03-14T08:02:01;10.80;99.90
67974;DHT22;54756;51.140;6.952;2023-03-14T08:04:02;10.80;99.90
67974;DHT22;54756;51.140;6.952;2023-03-14T08:06:02;10.90;99.90
67974;DHT22;54756;51.140;6.952;2023-03-14T08:08:04;11.10;99.90
67974;DHT22;54756;51.140;6.952;2023-03-14T08:10:05;11.20;99.90
67974;DHT22;54756;51.140;6.952;2023-03-14T08:12:06;11.40;99.90
67974;DHT22;54756;51.140;6.952;2023-03-14T08:14:07;11.50;99.90
67974;DHT22;54756;51.140;6.952;2023-03-14T08:16:08;11.70;99.90
67974;DHT22;54756;51.140;6.952;2023-03-14T08:18:08;11.70;99.90
67974;DHT22;54756;51.140;6.952;2023-03-14T08:20:09;11.80;99.90
67974;DHT22;54756;51.140;6.952;2023-03-14T08:22:11;11.80;99.90
67974;DHT22;54756;51.140;6.952;2023-03-14T08:24:12;11.80;99.90
67974;DHT22;54756;51.140;6.952;2023-03-14T08:26:13;11.80;99.90
67974;DHT22;54756;51.140;6.952;2023-03-14T08:28:13;11.90;99.90
67974;DHT22;54756;51.140;6.952;2023-03-14T08:30:15;12.00;99.90
67974;DHT22;54756;51.140;6.952;2023-03-14T08:32:17;12.10;99.90
67974;DHT22;54756;51.140;6.952;2023-03-14T08:34:17;12.10;99.90
67974;DHT22;54756;51.140;6.952;2023-03-14T08:36:19;12.00;99.90
67974;DHT22;54756;51.140;6.952;2023-03-14T08:38:20;12.10;99.90
67974;DHT22;54756;51.140;6.952;2023-03-14T08:40:20;12.10;99.90
67974;DHT22;54756;51.140;6.952;2023-03-14T08:42:21;12.10;99.90
67974;DHT22;54756;51.140;6.952;2023-03-14T08:44:21;12.10;99.90
67974;DHT22;54756;51.140;6.952;2023-03-14T08:46:22;12.00;99.90
67974;DHT22;54756;51.140;6.952;2023-03-14T08:48:23;11.90;99.90
67974;DHT22;54756;51.140;6.952;2023-03-14T08:50:23;11.90;99.90
67974;DHT22;54756;51.140;6.952;2023-03-14T08:52:24;11.80;99.90
67974;DHT22;54756;51.140;6.952;2023-03-14T08:54:25;11.70;99.90
67974;DHT22;54756;51.140;6.952;2023-03-14T08:56:25;11.70;99.90
67974;DHT22;54756;51.140;6.952;2023-03-14T08:58:26;11.70;99.90
67974;DHT22;54756;51.140;6.952;2023-03-14T09:00:26;11.80;99.90
67974;DHT22;54756;51.140;6.952;2023-03-14T09:02:27;11.70;99.90
67974;DHT22;54756;51.140;6.952;2023-03-14T09:04:27;11.70;99.90
67974;DHT22;54756;51.140;6.952;2023-03-14T09:06:28;11.50;99.90
67974;DHT22;54756;51.140;6.952;2023-03-14T09:08:28;11.40;99.90
67974;DHT22;54756;51.140;6.952;2023-03-14T09:10:29;11.30;99.90
67974;DHT22;54756;51.140;6.952;2023-03-14T09:12:30;11.20;99.90
67974;DHT22;54756;51.140;6.952;2023-03-14T09:14:31;11.10;99.90
67974;DHT22;54756;51.140;6.952;2023-03-14T09:16:33;10.90;99.90
67974;DHT22;54756;51.140;6.952;2023-03-14T09:18:33;10.80;99.90
67974;DHT22;54756;51.140;6.952;2023-03-14T09:20:34;10.80;99.90
67974;DHT22;54756;51.140;6.952;2023-03-14T09:22:35;10.70;99.90
67974;DHT22;54756;51.140;6.952;2023-03-14T09:24:35;10.70;99.90
67974;DHT22;54756;51.140;6.952;2023-03-14T09:26:36;10.70;99.90
67974;DHT22;54756;51.140;6.952;2023-03-14T09:28:36;10.60;99.90
67974;DHT22;54756;51.140;6.952;2023-03-14T09:30:37;10.60;99.90
67974;DHT22;54756;51.140;6.952;2023-03-14T09:32:38;10.50;99.90
67974;DHT22;54756;51.140;6.952;2023-03-14T09:34:38;10.30;99.90
67974;DHT22;54756;51.140;6.952;2023-03-14T09:36:39;10.10;99.90
67974;DHT22;54756;51.140;6.952;2023-03-14T09:38:39;9.90;99.90
67974;DHT22;54756;51.140;6.952;2023-03-14T09:40:40;9.70;99.90
67974;DHT22;54756;51.140;6.952;2023-03-14T09:42:41;9.50;99.90
67974;DHT22;54756;51.140;6.952;2023-03-14T09:45:02;9.30;99.90
67974;DHT22;54756;51.140;6.952;2023-03-14T09:47:07;9.10;99.90
67974;DHT22;54756;51.140;6.952;2023-03-14T09:57:08;8.70;99.90
67974;DHT22;54756;51.140;6.952;2023-03-14T09:59:12;8.60;99.90
67974;DHT22;54756;51.140;6.952;2023-03-14T10:01:16;8.60;99.90
67974;DHT22;54756;51.140;6.952;2023-03-14T10:05:25;8.60;99.90
67974;DHT22;54756;51.140;6.952;2023-03-14T10:07:30;8.50;99.90
67974;DHT22;54756;51.140;6.952;2023-03-14T10:09:31;8.50;99.90
67974;DHT22;54756;51.140;6.952;2023-03-14T10:11:31;8.50;99.90
67974;DHT22;54756;51.140;6.952;2023-03-14T10:13:32;8.40;99.90
67974;DHT22;54756;51.140;6.952;2023-03-14T10:15:33;8.40;99.90
67974;DHT22;54756;51.140;6.952;2023-03-14T10:17:42;8.40;99.90
67974;DHT22;54756;51.140;6.952;2023-03-14T10:20:00;8.30;99.90
67974;DHT22;54756;51.140;6.952;2023-03-14T10:22:02;8.20;99.90
67974;DHT22;54756;51.140;6.952;2023-03-14T10:24:21;8.20;99.90
67974;DHT22;54756;51.140;6.952;2023-03-14T10:28:28;8.10;99.90
67974;DHT22;54756;51.140;6.952;2023-03-14T10:30:40;8.00;99.90
67974;DHT22;54756;51.140;6.952;2023-03-14T10:32:46;8.00;99.90
67974;DHT22;54756;51.140;6.952;2023-03-14T10:35:05;7.90;99.90
67974;DHT22;54756;51.140;6.952;2023-03-14T10:37:25;8.00;99.90
67974;DHT22;54756;51.140;6.952;2023-03-14T10:42:30;8.00;99.90
67974;DHT22;54756;51.140;6.952;2023-03-14T10:44:33;8.00;99.90
67974;DHT22;54756;51.140;6.952;2023-03-14T10:46:35;8.00;99.90
67974;DHT22;54756;51.140;6.952;2023-03-14T10:48:37;8.10;99.90
67974;DHT22;54756;51.140;6.952;2023-03-14T10:53:08;8.20;99.90
67974;DHT22;54756;51.140;6.952;2023-03-14T10:55:11;8.20;99.90
67974;DHT22;54756;51.140;6.952;2023-03-14T10:57:12;8.20;99.90
67974;DHT22;54756;51.140;6.952;2023-03-14T10:59:14;8.10;99.90
67974;DHT22;54756;51.140;6.952;2023-03-14T11:03:43;8.00;99.90
67974;DHT22;54756;51.140;6.952;2023-03-14T11:06:13;8.00;99.90
67974;DHT22;54756;51.140;6.952;2023-03-14T11:08:23;8.00;99.90
67974;DHT22;54756;51.140;6.952;2023-03-14T11:10:37;7.90;99.90
67974;DHT22;54756;51.140;6.952;2023-03-14T11:17:18;7.80;99.90
67974;DHT22;54756;51.140;6.952;2023-03-14T11:22:05;7.70;99.90
67974;DHT22;54756;51.140;6.952;2023-03-14T11:26:37;7.70;99.90
67974;DHT22;54756;51.140;6.952;2023-03-14T11:28:49;7.70;99.90
67974;DHT22;54756;51.140;6.952;2023-03-14T11:30:55;7.60;99.90
67974;DHT22;54756;51.140;6.952;2023-03-14T11:35:31;7.50;99.90
67974;DHT22;54756;51.140;6.952;2023-03-14T11:37:47;7.50;99.90
67974;DHT22;54756;51.140;6.952;2023-03-14T11:40:10;7.60;99.90
67974;DHT22;54756;51.140;6.952;2023-03-14T11:42:16;7.70;99.90
67974;DHT22;54756;51.140;6.952;2023-03-14T11:52:28;7.40;99.90
67974;DHT22;54756;51.140;6.952;2023-03-14T11:56:53;7.40;99.90
67974;DHT22;54756;51.140;6.952;2023-03-14T11:59:03;7.30;99.90
67974;DHT22;54756;51.140;6.952;2023-03-14T12:01:09;7.30;99.90
67974;DHT22;54756;51.140;6.952;2023-03-14T12:10:09;7.70;99.90
67974;DHT22;54756;51.140;6.952;2023-03-14T12:12:14;7.70;99.90
67974;DHT22;54756;51.140;6.952;2023-03-14T12:14:26;7.60;99.90
67974;DHT22;54756;51.140;6.952;2023-03-14T12:16:31;7.50;99.90
67974;DHT22;54756;51.140;6.952;2023-03-14T12:18:37;7.50;99.90
67974;DHT22;54756;51.140;6.952;2023-03-14T12:20:51;7.60;99.90
67974;DHT22;54756;51.140;6.952;2023-03-14T12:23:10;7.60;99.90
67974;DHT22;54756;51.140;6.952;2023-03-14T12:25:24;7.50;99.90
67974;DHT22;54756;51.140;6.952;2023-03-14T12:29:59;7.30;99.90
67974;DHT22;54756;51.140;6.952;2023-03-14T12:36:31;7.30;99.90
67974;DHT22;54756;51.140;6.952;2023-03-14T12:43:29;8.10;99.90
67974;DHT22;54756;51.140;6.952;2023-03-14T12:45:31;8.40;99.90
67974;DHT22;54756;51.140;6.952;2023-03-14T12:49:36;8.80;99.90
67974;DHT22;54756;51.140;6.952;2023-03-14T12:51:40;9.10;99.90
67974;DHT22;54756;51.140;6.952;2023-03-14T12:58:48;9.50;99.90
67974;DHT22;54756;51.140;6.952;2023-03-14T13:01:00;9.70;99.90
67974;DHT22;54756;51.140;6.952;2023-03-14T13:03:46;9.90;99.90
67974;DHT22;54756;51.140;6.952;2023-03-14T13:05:56;10.30;99.90
67974;DHT22;54756;51.140;6.952;2023-03-14T13:12:10;11.10;99.90
67974;DHT22;54756;51.140;6.952;2023-03-14T13:14:11;11.80;99.90
67974;DHT22;54756;51.140;6.952;2023-03-14T13:16:16;12.40;99.90
67974;DHT22;54756;51.140;6.952;2023-03-14T13:18:33;12.70;99.90
67974;DHT22;54756;51.140;6.952;2023-03-14T13:20:48;12.50;99.90
67974;DHT22;54756;51.140;6.952;2023-03-14T13:22:50;12.00;99.90
67974;DHT22;54756;51.140;6.952;2023-03-14T13:24:59;11.40;99.90
67974;DHT22;54756;51.140;6.952;2023-03-14T13:27:00;10.90;99.90
67974;DHT22;54756;51.140;6.952;2023-03-14T13:29:19;11.10;99.90
67974;DHT22;54756;51.140;6.952;2023-03-14T13:31:25;12.00;99.90
67974;DHT22;54756;51.140;6.952;2023-03-14T13:33:26;13.80;99.90
67974;DHT22;54756;51.140;6.952;2023-03-14T13:35:39;14.80;99.90
67974;DHT22;54756;51.140;6.952;2023-03-14T13:37:40;14.70;99.90
67974;DHT22;54756;51.140;6.952;2023-03-14T13:39:41;14.00;99.90
67974;DHT22;54756;51.140;6.952;2023-03-14T13:41:42;13.00;99.90
67974;DHT22;54756;51.140;6.952;2023-03-14T13:43:43;12.20;99.90
67974;DHT22;54756;51.140;6.952;2023-03-14T13:45:56;11.60;99.90
67974;DHT22;54756;51.140;6.952;2023-03-14T13:47:57;11.20;99.90
67974;DHT22;54756;51.140;6.952;2023-03-14T13:49:58;11.10;99.90
67974;DHT22;54756;51.140;6.952;2023-03-14T13:51:59;11.20;99.90
67974;DHT22;54756;51.140;6.952;2023-03-14T13:54:00;12.40;99.90
67974;DHT22;54756;51.140;6.952;2023-03-14T13:56:03;14.20;99.90
67974;DHT22;54756;51.140;6.952;2023-03-14T13:58:04;15.80;99.90
67974;DHT22;54756;51.140;6.952;2023-03-14T14:00:06;15.80;99.90
67974;DHT22;54756;51.140;6.952;2023-03-14T14:02:14;15.10;99.90
67974;DHT22;54756;51.140;6.952;2023-03-14T14:04:18;14.00;99.90
67974;DHT22;54756;51.140;6.952;2023-03-14T14:06:35;12.90;99.90
67974;DHT22;54756;51.140;6.952;2023-03-14T14:19:25;9.50;99.90
67974;DHT22;54756;51.140;6.952;2023-03-14T14:23:28;9.90;99.90
67974;DHT22;54756;51.140;6.952;2023-03-14T14:25:31;10.20;99.90
67974;DHT22;54756;51.140;6.952;2023-03-14T14:27:42;10.50;99.90
67974;DHT22;54756;51.140;6.952;2023-03-14T14:29:44;11.30;99.90
67974;DHT22;54756;51.140;6.952;2023-03-14T14:34:27;13.20;99.90
67974;DHT22;54756;51.140;6.952;2023-03-14T14:36:48;13.60;99.90